H.b. 1 — WDC2454 — position and weather

sailwx.info

Track history (hours):
 
Tides and Currents Weather Stations Pressure Air Temp Water Temp Dewpoint Dewpoint Depression Visibility Wind Speed Wind Dir Waves Ship Positions

H.b. 1

Owner: Florida Marine, LLC, Mandeville, LA. More information available from US FCC via Universal Licensing System and Coast Guard Vessel Documentation Center.

Last reported at 2018-Jun-14 11:36 UTC. Time now 2018-Jun-19 04:15 UTC.
Position N 29°40' W 094°58'.

Length 23 m; draft 2.9 m.

Type: Other ship. MMSI: 366993420.

Date/timePositionNaut miles runAvg speedWind from/ knotsBaromVisibWave heightAir tempDewpointWater temp
2018-Jun-14 11:36N 29°40' W 094°58'20 7.9
2018-Jun-14 09:03N 29°22' W 094°48'0 5.8
2018-Jun-14 09:00N 29°22' W 094°49'3 7.1
2018-Jun-14 08:30N 29°23' W 094°53'2 0.1
2018-Jun-13 15:15N 29°22' W 094°55'0 1.7
2018-Jun-13 15:00N 29°22' W 094°54'5 4.7
2018-Jun-13 13:53N 29°22' W 094°48'13 5.1
2018-Jun-13 11:23N 29°34' W 094°55'2 6.1
2018-Jun-13 11:00N 29°35' W 094°56'6 6.3
2018-Jun-13 10:01N 29°41' W 094°59'0 6.0
2018-Jun-13 10:00N 29°41' W 094°59'  
2018-Jun-09 02:18N 29°47' W 095°06'4 0.2
2018-Jun-08 02:36N 29°44' W 095°09'0 0.3
2018-Jun-08 02:07N 29°44' W 095°09'1 5.8
2018-Jun-08 01:55N 29°44' W 095°08'  
Track history (hours):
 
Tides and Currents Weather Stations Pressure Air Temp Water Temp Dewpoint Dewpoint Depression Visibility Wind Speed Wind Dir Waves Ship Positions

H.b. 1

Owner: Florida Marine, LLC, Mandeville, LA. More information available from US FCC via Universal Licensing System and Coast Guard Vessel Documentation Center.

Last reported at 2018-Jun-14 11:36 UTC. Time now 2018-Jun-19 04:15 UTC.
Position N 29°40' W 094°58'.

Length 23 m; draft 2.9 m.

Type: Other ship. MMSI: 366993420.

Date/timePositionNaut miles runAvg speedWind from/ knotsBaromVisibWave heightAir tempDewpointWater temp
2018-Jun-14 11:36N 29°40' W 094°58'20 7.9
2018-Jun-14 09:03N 29°22' W 094°48'0 5.8
2018-Jun-14 09:00N 29°22' W 094°49'3 7.1
2018-Jun-14 08:30N 29°23' W 094°53'2 0.1
2018-Jun-13 15:15N 29°22' W 094°55'0 1.7
2018-Jun-13 15:00N 29°22' W 094°54'5 4.7
2018-Jun-13 13:53N 29°22' W 094°48'13 5.1
2018-Jun-13 11:23N 29°34' W 094°55'2 6.1
2018-Jun-13 11:00N 29°35' W 094°56'6 6.3
2018-Jun-13 10:01N 29°41' W 094°59'0 6.0
2018-Jun-13 10:00N 29°41' W 094°59'  
2018-Jun-09 02:18N 29°47' W 095°06'4 0.2
2018-Jun-08 02:36N 29°44' W 095°09'0 0.3
2018-Jun-08 02:07N 29°44' W 095°09'1 5.8
2018-Jun-08 01:55N 29°44' W 095°08'  

Dump ship's entire track history